Home   Weather   USA   Solvang   Past weeks
Flag for USA

Past Weather in Solvang, California, USA — Yesterday and Last 2 Weeks

Currently: 63 °F. Clear. (Weather station: Santa Ynez Airport, USA). See more current weather

Past Weather in Solvang — Graph

°F

Solvang Temperature Yesterday

Maximum temperature yesterday: 88 °F (at 1:55 pm)
Minimum temperature yesterday: 55 °F (at 4:15 am)
Average temperature yesterday: 67 °F

High & Low Weather Summary for the Past Weeks

 TemperatureHumidityPressure
High95 °F (Aug 1, 2:35 pm)100% (Jul 27, 12:35 am)30.06 "Hg (Jul 27, 12:35 am)
Low52 °F (Jul 27, 2:55 am)14% (Aug 4, 1:15 pm)29.86 "Hg (Jul 28, 3:55 pm)
Average68 °F70%29.96 "Hg
* Reported Jul 26 9:15 pm — Aug 10 9:15 pm, Solvang. Weather by CustomWeather, © 2022

Note: Actual official high and low records may vary slightly from our data, if they occured in-between our weather recording intervals... More about our weather records

Solvang Weather History for the Previous 24 Hours

Scroll right to see more
 ConditionsComfort  
Time TempWeatherWind HumidityBarometerVisibility
9:15 pm
Wed, Aug 10
63 °FPassing clouds.3 mph83%30.06 "Hg10 mi
8:55 pm64 °FClear.5 mph78%30.06 "Hg10 mi
8:15 pm66 °FClear.9 mph73%30.05 "Hg10 mi
7:55 pm68 °FClear.9 mph69%30.04 "Hg10 mi
7:35 pm70 °FSunny.9 mph64%30.03 "Hg10 mi
7:15 pm72 °FSunny.10 mph61%30.03 "Hg10 mi
6:55 pm73 °FSunny.10 mph57%30.02 "Hg10 mi
6:35 pm75 °FSunny.12 mph50%30.02 "Hg10 mi
6:15 pm77 °FSunny.12 mph47%30.02 "Hg10 mi
5:55 pm79 °FSunny.15 mph45%30.01 "Hg10 mi
4:35 pm82 °FSunny.15 mph37%30.01 "Hg10 mi
4:15 pm84 °FSunny.16 mph33%30.01 "Hg10 mi
3:55 pm84 °FSunny.15 mph33%30.01 "Hg10 mi
3:35 pm84 °FSunny.17 mph35%30.00 "Hg10 mi
3:15 pm86 °FSunny.17 mph31%30.01 "Hg10 mi
2:55 pm86 °FSunny.14 mph31%30.01 "Hg10 mi
2:35 pm88 °FSunny.17 mph29%30.01 "Hg10 mi
2:15 pm90 °FSunny.14 mph27%30.01 "Hg10 mi
1:55 pm88 °FSunny.13 mph29%30.02 "Hg10 mi
1:35 pm86 °FSunny.14 mph31%30.02 "Hg10 mi
1:15 pm88 °FSunny.12 mph27%30.02 "Hg10 mi
12:35 pm86 °FSunny.7 mph31%30.03 "Hg10 mi
12:15 pm84 °FSunny.8 mph31%30.04 "Hg10 mi
11:55 am82 °FSunny.6 mph35%30.05 "Hg10 mi
11:35 am82 °FSunny.7 mph35%30.05 "Hg10 mi
11:15 am79 °FSunny.8 mph42%30.05 "Hg10 mi
10:55 am79 °FSunny.6 mph39%30.05 "Hg10 mi
10:15 am73 °FSunny.5 mph57%30.05 "Hg10 mi
9:55 am70 °FSunny.5 mph64%30.05 "Hg10 mi
9:15 am64 °FSunny.No wind78%30.05 "Hg10 mi
8:55 am61 °FSunny.No wind88%30.06 "Hg10 mi
8:35 am59 °FScattered clouds.No wind94%30.06 "Hg10 mi
8:15 am55 °FPartly sunny.No wind100%30.05 "Hg8 mi
7:55 am55 °FFog.No wind100%30.05 "Hg2 mi
7:15 am55 °FFog.No wind100%30.04 "Hg0 mi
6:35 am55 °FFog.No wind100%30.03 "Hg0 mi
5:55 am54 °FFog.No wind100%30.02 "Hg0 mi
5:35 am54 °FFog.No wind100%30.02 "Hg0 mi
5:15 am55 °FFog.No wind100%30.02 "Hg0 mi
4:55 am55 °FFog.No wind100%30.02 "Hg0 mi
4:15 am55 °FLow clouds.No wind100%30.02 "Hg8 mi
3:55 am55 °FLow clouds.No wind100%30.02 "Hg10 mi
3:15 am55 °FClear.3 mph100%30.03 "Hg10 mi
2:55 am57 °FClear.No wind94%30.02 "Hg10 mi
2:15 am57 °FClear.No wind94%30.02 "Hg10 mi
1:55 am57 °FClear.No wind100%30.02 "Hg10 mi
1:35 am57 °FClear.No wind100%30.02 "Hg10 mi
1:15 am57 °FClear.5 mph100%30.02 "Hg10 mi
12:55 am57 °FClear.5 mph94%30.02 "Hg10 mi
12:15 am59 °FClear.No wind94%30.02 "Hg10 mi
11:55 pm
Tue, Aug 9
59 °FClear.3 mph88%30.02 "Hg10 mi
10:55 pm61 °FClear.3 mph88%30.02 "Hg10 mi
10:15 pm61 °FClear.N/A83%30.01 "Hg10 mi
Weather by CustomWeather, © 2022

See weather overview